Time;durP1;ratioP1;P1;durP2;ratioP2;P2;SDS_P1;SDS_P2;PMS_P1;PMS_P2;Temp;Humidity;BMP_temperature;BMP_pressure;BME280_temperature;BME280_humidity;BME280_pressure;Samples;Min_cycle;Max_cycle;Signal;HPM_P1;HPM_P2
2024/01/13 00:01:02;;;;;;;12.57;5.95;;;5.00;99.90;;;;;;5018023;28;20301;-45
2024/01/13 00:03:28;;;;;;;19.17;6.97;;;5.00;99.90;;;;;;5001877;28;20311;-44
2024/01/13 00:05:54;;;;;;;24.02;6.93;;;4.90;99.90;;;;;;5017976;28;20192;-47
2024/01/13 00:08:20;;;;;;;19.55;6.78;;;5.00;99.90;;;;;;5020584;28;20231;-45
2024/01/13 00:10:46;;;;;;;19.90;6.45;;;5.00;99.90;;;;;;5023323;28;20686;-44
2024/01/13 00:13:12;;;;;;;24.42;6.28;;;5.00;99.90;;;;;;5023696;28;20626;-42
2024/01/13 00:15:37;;;;;;;18.83;7.35;;;5.00;99.90;;;;;;5023351;28;20287;-46
2024/01/13 00:18:03;;;;;;;21.30;7.28;;;4.90;99.90;;;;;;5023725;28;20188;-45
2024/01/13 00:20:29;;;;;;;18.73;7.32;;;4.90;99.90;;;;;;5023332;28;20656;-48
2024/01/13 00:22:55;;;;;;;18.70;7.30;;;4.90;99.90;;;;;;5023466;28;20250;-41
2024/01/13 00:25:21;;;;;;;20.77;7.65;;;4.90;99.90;;;;;;5023310;28;20188;-46
2024/01/13 00:27:47;;;;;;;12.10;6.70;;;4.90;99.90;;;;;;4999112;28;20188;-46
2024/01/13 00:30:14;;;;;;;19.10;7.07;;;5.00;99.90;;;;;;5018980;28;20735;-46
2024/01/13 00:32:40;;;;;;;17.52;7.22;;;4.90;99.90;;;;;;5023332;28;20242;-47
2024/01/13 00:35:06;;;;;;;18.20;6.53;;;4.90;99.90;;;;;;5018916;28;20184;-42
2024/01/13 00:37:32;;;;;;;10.77;6.53;;;5.00;99.90;;;;;;5018165;28;20216;-48
2024/01/13 00:39:57;;;;;;;12.57;6.85;;;4.90;99.90;;;;;;5022984;28;20199;-40
2024/01/13 00:42:23;;;;;;;13.90;6.85;;;4.90;99.90;;;;;;5017513;28;20216;-44
2024/01/13 00:44:49;;;;;;;10.80;6.18;;;4.90;99.90;;;;;;5022834;28;20506;-45
2024/01/13 00:47:15;;;;;;;9.88;6.40;;;4.90;99.90;;;;;;5023285;28;20191;-46
2024/01/13 00:49:41;;;;;;;12.52;6.20;;;4.90;99.90;;;;;;5016547;28;20229;-48
2024/01/13 00:52:09;;;;;;;11.63;5.30;;;4.90;99.90;;;;;;5017940;28;20242;-45
2024/01/13 00:54:35;;;;;;;8.52;4.75;;;4.90;99.90;;;;;;5002491;28;20310;-45
2024/01/13 00:57:01;;;;;;;12.63;4.25;;;4.90;99.90;;;;;;5016892;28;20279;-41
2024/01/13 00:59:27;;;;;;;9.73;4.25;;;4.90;99.90;;;;;;5022818;28;20216;-42
2024/01/13 01:01:53;;;;;;;12.05;4.22;;;4.90;99.90;;;;;;5022896;28;20335;-43
2024/01/13 01:04:19;;;;;;;8.25;3.97;;;4.90;99.90;;;;;;5017121;28;20199;-46
2024/01/13 01:06:45;;;;;;;10.35;3.70;;;4.90;99.90;;;;;;5022771;28;20234;-46
2024/01/13 01:09:11;;;;;;;7.93;3.55;;;4.90;99.90;;;;;;5022554;28;20215;-47
2024/01/13 01:11:37;;;;;;;7.82;3.70;;;4.90;99.90;;;;;;5003112;28;20293;-46
2024/01/13 01:14:03;;;;;;;10.77;3.78;;;4.90;99.90;;;;;;5017577;28;20275;-42
2024/01/13 01:16:29;;;;;;;13.90;4.50;;;4.90;99.90;;;;;;5022718;28;20187;-43
2024/01/13 01:18:55;;;;;;;13.30;5.35;;;4.90;99.90;;;;;;5022044;28;20191;-47
2024/01/13 01:21:21;;;;;;;14.63;5.43;;;4.90;99.90;;;;;;5022027;28;20329;-45
2024/01/13 01:23:48;;;;;;;13.50;6.00;;;4.90;99.90;;;;;;5022290;28;20265;-51
2024/01/13 01:26:14;;;;;;;11.50;5.10;;;4.90;99.90;;;;;;5018639;28;20207;-47
2024/01/13 01:28:39;;;;;;;11.68;5.32;;;4.90;99.90;;;;;;5022077;28;20188;-40
2024/01/13 01:31:06;;;;;;;11.27;4.97;;;4.90;99.90;;;;;;5022187;28;20558;-41
2024/01/13 01:33:32;;;;;;;10.05;5.05;;;4.80;99.90;;;;;;5022577;28;20198;-45
2024/01/13 01:35:58;;;;;;;10.57;4.50;;;4.80;99.90;;;;;;5021889;28;20184;-45
2024/01/13 01:38:24;;;;;;;8.75;4.30;;;4.80;99.90;;;;;;5021903;28;20226;-53
2024/01/13 01:40:54;;;;;;;10.43;3.95;;;4.80;99.90;;;;;;5021957;28;20196;-45
2024/01/13 01:43:20;;;;;;;7.65;4.00;;;4.80;99.90;;;;;;5021967;28;20227;-41
2024/01/13 01:45:59;;;;;;;8.23;3.30;;;4.70;99.90;;;;;;5021687;28;20225;-44
2024/01/13 01:48:36;;;;;;;10.88;3.53;;;4.70;99.90;;;;;;5021684;28;20188;-38
2024/01/13 01:51:03;;;;;;;9.38;4.03;;;4.70;99.90;;;;;;5021612;28;20180;-51
2024/01/13 01:53:29;;;;;;;8.32;3.55;;;4.70;99.90;;;;;;5021488;28;20208;-43
2024/01/13 01:55:55;;;;;;;8.88;3.58;;;4.70;99.90;;;;;;5021660;28;20266;-42
2024/01/13 01:58:22;;;;;;;8.55;4.13;;;4.70;99.90;;;;;;5022174;28;20672;-46
2024/01/13 02:00:49;;;;;;;8.98;4.93;;;4.70;99.90;;;;;;5021605;28;20242;-45
2024/01/13 02:03:15;;;;;;;7.68;4.57;;;4.70;99.90;;;;;;5021287;28;20223;-43
2024/01/13 02:05:41;;;;;;;11.40;5.07;;;4.70;99.90;;;;;;5021929;28;20229;-45
2024/01/13 02:08:07;;;;;;;6.78;4.95;;;4.70;99.90;;;;;;5017036;28;20192;-46
2024/01/13 02:10:33;;;;;;;8.52;5.38;;;4.70;99.90;;;;;;5023088;28;20650;-47
2024/01/13 02:12:59;;;;;;;11.15;6.13;;;4.80;99.90;;;;;;5021241;28;20632;-43
2024/01/13 02:15:25;;;;;;;10.75;5.57;;;4.80;99.90;;;;;;5020816;28;20191;-42
2024/01/13 02:17:51;;;;;;;12.82;5.10;;;4.80;99.90;;;;;;5021696;28;21166;-43
2024/01/13 02:20:17;;;;;;;10.20;5.38;;;4.80;99.90;;;;;;5020555;28;20744;-44
2024/01/13 02:22:43;;;;;;;10.57;5.35;;;4.80;99.90;;;;;;5021603;28;20234;-44
2024/01/13 02:25:09;;;;;;;10.73;5.20;;;4.80;99.90;;;;;;5016691;28;20238;-46
2024/01/13 02:27:35;;;;;;;8.98;5.40;;;4.80;99.90;;;;;;5021472;28;20196;-45
2024/01/13 02:30:01;;;;;;;8.45;4.97;;;4.70;99.90;;;;;;5021217;28;20690;-38
2024/01/13 02:32:27;;;;;;;10.80;5.57;;;4.70;99.90;;;;;;5020953;28;20244;-46
2024/01/13 02:34:53;;;;;;;10.32;4.70;;;4.70;99.90;;;;;;5020545;28;20201;-45
2024/01/13 02:37:19;;;;;;;14.32;5.30;;;4.70;99.90;;;;;;5021233;28;20192;-46
2024/01/13 02:39:46;;;;;;;15.68;6.50;;;4.70;99.90;;;;;;5021141;28;20198;-46
2024/01/13 02:42:12;;;;;;;11.82;6.32;;;4.70;99.90;;;;;;5011667;28;20289;-42
2024/01/13 02:44:38;;;;;;;12.90;6.03;;;4.70;99.90;;;;;;5020964;28;20227;-44
2024/01/13 02:47:04;;;;;;;12.65;5.90;;;4.70;99.90;;;;;;5021493;28;20219;-42
2024/01/13 02:49:30;;;;;;;12.68;5.70;;;4.70;99.90;;;;;;5020651;28;20200;-45
2024/01/13 02:51:56;;;;;;;14.88;5.50;;;4.80;99.90;;;;;;5020890;28;20206;-48
2024/01/13 02:54:22;;;;;;;12.80;5.15;;;4.80;99.90;;;;;;5020850;28;20219;-46
2024/01/13 02:56:47;;;;;;;8.57;4.43;;;4.80;99.90;;;;;;5021153;28;20188;-42
2024/01/13 02:59:13;;;;;;;14.25;4.40;;;4.80;99.90;;;;;;5021422;28;20191;-43
2024/01/13 03:01:39;;;;;;;10.95;3.85;;;4.80;99.90;;;;;;5020561;28;20190;-45
2024/01/13 03:04:06;;;;;;;6.90;3.60;;;4.80;99.90;;;;;;5018996;28;20223;-42
2024/01/13 03:06:32;;;;;;;6.13;3.00;;;4.80;99.90;;;;;;5024310;28;20183;-46
2024/01/13 03:08:58;;;;;;;4.55;3.08;;;4.80;99.90;;;;;;5024889;28;20203;-42
2024/01/13 03:11:24;;;;;;;8.43;2.95;;;4.80;99.90;;;;;;5025182;28;20184;-39
2024/01/13 03:13:50;;;;;;;5.57;2.90;;;4.80;99.90;;;;;;5024922;28;20275;-49
2024/01/13 03:16:16;;;;;;;6.22;2.90;;;4.70;99.90;;;;;;5024855;28;21268;-50
2024/01/13 03:18:42;;;;;;;7.45;3.10;;;4.70;99.90;;;;;;5020136;28;20691;-44
2024/01/13 03:21:12;;;;;;;7.70;2.85;;;4.70;99.90;;;;;;5024305;28;20222;-40
2024/01/13 03:23:38;;;;;;;8.65;3.05;;;4.70;99.90;;;;;;5024806;28;20207;-49
2024/01/13 03:26:04;;;;;;;5.25;2.58;;;4.70;99.90;;;;;;5024437;28;20271;-42
2024/01/13 03:28:30;;;;;;;11.05;2.95;;;4.60;99.90;;;;;;5024685;28;20210;-46
2024/01/13 03:30:58;;;;;;;10.93;2.83;;;4.70;99.90;;;;;;5024484;28;20216;-42
2024/01/13 03:33:24;;;;;;;5.78;2.97;;;4.70;99.90;;;;;;5024028;28;20663;-45
2024/01/13 03:35:50;;;;;;;11.18;2.60;;;4.70;99.90;;;;;;5020461;28;20227;-48
2024/01/13 03:38:15;;;;;;;5.22;3.28;;;4.80;99.90;;;;;;5024634;28;20671;-48
2024/01/13 03:40:41;;;;;;;8.02;3.58;;;4.70;99.90;;;;;;5019056;28;20614;-45
2024/01/13 03:43:07;;;;;;;7.18;3.90;;;4.70;99.90;;;;;;5023833;28;20215;-46
2024/01/13 03:45:33;;;;;;;10.57;3.65;;;4.70;99.90;;;;;;5020681;28;20246;-40
2024/01/13 03:48:00;;;;;;;7.40;3.58;;;4.70;99.90;;;;;;5019077;28;20258;-43
2024/01/13 03:50:26;;;;;;;7.68;3.50;;;4.70;99.90;;;;;;5024054;28;20192;-49
2024/01/13 03:52:53;;;;;;;10.85;3.53;;;4.70;99.90;;;;;;5024039;28;20200;-43
2024/01/13 03:55:19;;;;;;;10.05;3.28;;;4.70;99.90;;;;;;5018397;28;20771;-45
2024/01/13 03:57:44;;;;;;;7.32;3.22;;;4.70;99.90;;;;;;5017341;28;20198;-46
2024/01/13 04:00:11;;;;;;;7.78;3.30;;;4.70;99.90;;;;;;5023832;28;20187;-43
2024/01/13 04:02:37;;;;;;;7.13;4.00;;;4.70;99.90;;;;;;5023467;28;20239;-46
2024/01/13 04:05:04;;;;;;;9.98;4.18;;;4.70;99.90;;;;;;5024345;28;20195;-41
2024/01/13 04:07:30;;;;;;;10.32;4.10;;;4.70;99.90;;;;;;5023961;28;20184;-40
2024/01/13 04:09:56;;;;;;;8.48;4.05;;;4.70;99.90;;;;;;5023910;28;20573;-48
2024/01/13 04:12:22;;;;;;;10.68;4.45;;;4.70;99.90;;;;;;5023756;28;20608;-40
2024/01/13 04:14:47;;;;;;;10.40;4.13;;;4.70;99.90;;;;;;5002248;28;20196;-42
2024/01/13 04:17:13;;;;;;;6.78;3.70;;;4.70;99.90;;;;;;5023672;28;20184;-41
2024/01/13 04:19:39;;;;;;;9.85;4.20;;;4.70;99.90;;;;;;5023622;28;20254;-42
2024/01/13 04:22:05;;;;;;;7.95;3.47;;;4.70;99.90;;;;;;5023324;28;20216;-50
2024/01/13 04:24:31;;;;;;;5.55;3.60;;;4.80;99.90;;;;;;5023774;28;20242;-45
2024/01/13 04:26:57;;;;;;;7.45;3.53;;;4.70;99.90;;;;;;5023769;28;20188;-49
2024/01/13 04:29:23;;;;;;;11.73;3.85;;;4.70;99.90;;;;;;5020062;28;20188;-46
2024/01/13 04:31:48;;;;;;;7.70;4.25;;;4.70;99.90;;;;;;5007195;28;20232;-42
2024/01/13 04:34:14;;;;;;;9.55;4.22;;;4.70;99.90;;;;;;5020421;28;20223;-49
2024/01/13 04:36:40;;;;;;;9.13;4.25;;;4.80;99.90;;;;;;5021947;28;20200;-47
2024/01/13 04:39:06;;;;;;;8.65;4.57;;;4.80;99.90;;;;;;5022284;28;20188;-47
2024/01/13 04:41:32;;;;;;;8.98;4.57;;;4.80;99.90;;;;;;5023088;28;20257;-45
2024/01/13 04:43:58;;;;;;;9.95;4.95;;;4.80;99.90;;;;;;5023656;28;20220;-47
2024/01/13 04:46:24;;;;;;;10.60;4.75;;;4.80;99.90;;;;;;5023142;28;20188;-40
2024/01/13 04:48:49;;;;;;;9.07;4.65;;;4.80;99.90;;;;;;5019321;28;20207;-46
2024/01/13 04:51:16;;;;;;;9.15;4.97;;;4.80;99.90;;;;;;5022429;28;20184;-45
2024/01/13 04:53:42;;;;;;;8.20;5.13;;;4.80;99.90;;;;;;5023361;28;20216;-42
2024/01/13 04:56:08;;;;;;;12.50;5.50;;;4.80;99.90;;;;;;5019057;28;20309;-48
2024/01/13 04:58:34;;;;;;;8.27;4.70;;;4.80;99.90;;;;;;5022959;28;20270;-45
2024/01/13 05:01:00;;;;;;;11.13;4.20;;;4.80;99.90;;;;;;5022758;28;20200;-45
2024/01/13 05:03:25;;;;;;;10.90;4.22;;;4.80;99.90;;;;;;5022783;28;20223;-41
2024/01/13 05:05:51;;;;;;;6.70;3.75;;;4.80;99.90;;;;;;5022045;28;20543;-45
2024/01/13 05:08:17;;;;;;;12.88;4.32;;;4.80;99.90;;;;;;5022547;28;20192;-48
2024/01/13 05:10:43;;;;;;;8.93;4.50;;;4.80;99.90;;;;;;5022594;28;20195;-42
2024/01/13 05:13:09;;;;;;;8.60;3.55;;;4.80;99.90;;;;;;5019715;28;20659;-46
2024/01/13 05:15:35;;;;;;;8.43;4.07;;;4.80;99.90;;;;;;5022822;28;20237;-43
2024/01/13 05:18:01;;;;;;;9.55;4.82;;;4.70;99.90;;;;;;5022514;28;20293;-45
2024/01/13 05:20:26;;;;;;;8.38;4.68;;;4.70;99.90;;;;;;5022385;28;20192;-40
2024/01/13 05:22:52;;;;;;;13.52;5.43;;;4.80;99.90;;;;;;5021757;28;20751;-48
2024/01/13 05:25:18;;;;;;;6.93;3.95;;;4.70;99.90;;;;;;5022627;28;20324;-42
2024/01/13 05:27:44;;;;;;;6.53;3.63;;;4.70;99.90;;;;;;5021668;28;20215;-43
2024/01/13 05:30:10;;;;;;;8.45;3.78;;;4.70;99.90;;;;;;5022307;28;21085;-47
2024/01/13 05:32:39;;;;;;;8.85;3.97;;;4.70;99.90;;;;;;5021800;28;20656;-45
2024/01/13 05:35:06;;;;;;;7.18;3.80;;;4.70;99.90;;;;;;5021432;28;20195;-48
2024/01/13 05:37:33;;;;;;;8.75;3.85;;;4.70;99.90;;;;;;5022078;28;20213;-52
2024/01/13 05:39:59;;;;;;;15.18;4.00;;;4.70;99.90;;;;;;5021877;28;20648;-51
2024/01/13 05:42:25;;;;;;;13.82;4.22;;;4.70;99.90;;;;;;5021654;28;20224;-46
2024/01/13 05:44:52;;;;;;;6.75;3.55;;;4.80;99.90;;;;;;5021831;28;20176;-45
2024/01/13 05:47:18;;;;;;;5.70;3.70;;;4.70;99.90;;;;;;5021916;28;20186;-48
2024/01/13 05:49:44;;;;;;;9.65;3.47;;;4.80;99.90;;;;;;5021853;28;20188;-44
2024/01/13 05:52:10;;;;;;;6.93;3.08;;;4.70;99.90;;;;;;5021793;28;20184;-49
2024/01/13 05:54:39;;;;;;;8.77;3.47;;;4.70;99.90;;;;;;5021548;28;20223;-47
2024/01/13 05:57:05;;;;;;;7.70;3.35;;;4.70;99.90;;;;;;5022185;28;20735;-43
2024/01/13 05:59:31;;;;;;;4.80;3.00;;;4.70;99.90;;;;;;5021655;28;20234;-49
2024/01/13 06:01:57;;;;;;;5.28;3.30;;;4.70;99.90;;;;;;5021055;28;20192;-44
2024/01/13 06:04:23;;;;;;;6.43;3.30;;;4.70;99.90;;;;;;5021477;28;20192;-47
2024/01/13 06:06:48;;;;;;;5.53;2.90;;;4.70;99.90;;;;;;5021860;28;20279;-43
2024/01/13 06:09:15;;;;;;;4.57;2.97;;;4.70;99.90;;;;;;5021460;28;20187;-46
2024/01/13 06:11:41;;;;;;;5.47;3.33;;;4.70;99.90;;;;;;5021067;28;20616;-46
2024/01/13 06:14:07;;;;;;;9.45;3.20;;;4.70;99.90;;;;;;5021268;28;20282;-46
2024/01/13 06:16:33;;;;;;;6.97;3.83;;;4.70;99.90;;;;;;5020886;28;20459;-46
2024/01/13 06:19:02;;;;;;;6.90;3.55;;;4.70;99.90;;;;;;5021717;28;21059;-39
2024/01/13 06:21:28;;;;;;;6.78;3.03;;;4.70;99.90;;;;;;5021528;28;20300;-46
2024/01/13 06:23:56;;;;;;;7.10;3.35;;;4.70;99.90;;;;;;4998460;28;20273;-41
2024/01/13 06:26:22;;;;;;;4.45;3.10;;;4.70;99.90;;;;;;5021352;28;20559;-42
2024/01/13 06:28:48;;;;;;;7.57;3.30;;;4.70;99.90;;;;;;5019806;28;21212;-49
2024/01/13 06:31:14;;;;;;;4.47;3.10;;;4.70;99.90;;;;;;5021413;28;20222;-47
2024/01/13 06:33:40;;;;;;;6.57;2.88;;;4.70;99.90;;;;;;5021019;28;20211;-44
2024/01/13 06:36:06;;;;;;;4.60;2.90;;;4.70;99.90;;;;;;5021124;28;20559;-42
2024/01/13 06:38:32;;;;;;;3.00;2.47;;;4.70;99.90;;;;;;5019986;28;20199;-42
2024/01/13 06:40:58;;;;;;;4.38;2.20;;;4.70;99.90;;;;;;5014741;28;20192;-42
2024/01/13 06:43:23;;;;;;;3.58;2.67;;;4.80;99.90;;;;;;5020342;28;20211;-45
2024/01/13 06:45:49;;;;;;;4.00;2.50;;;4.80;99.90;;;;;;5000892;28;20238;-50
2024/01/13 06:48:15;;;;;;;2.65;2.30;;;4.70;99.90;;;;;;5017743;28;20188;-41
2024/01/13 06:50:41;;;;;;;2.40;2.00;;;4.80;99.90;;;;;;5020388;28;20188;-47
2024/01/13 06:53:07;;;;;;;3.97;1.95;;;4.80;99.90;;;;;;5020267;28;20191;-45
2024/01/13 06:55:33;;;;;;;5.57;2.20;;;4.80;99.90;;;;;;5020662;28;20238;-47
2024/01/13 06:57:59;;;;;;;2.53;2.10;;;4.70;99.90;;;;;;5020415;28;20207;-47
2024/01/13 07:00:25;;;;;;;3.63;1.88;;;4.70;99.90;;;;;;5019702;28;20184;-45
2024/01/13 07:02:52;;;;;;;3.08;2.00;;;4.70;99.90;;;;;;5020360;28;20268;-41
2024/01/13 07:05:18;;;;;;;2.88;1.70;;;4.80;99.90;;;;;;5020392;28;20583;-45
2024/01/13 07:07:44;;;;;;;2.88;1.67;;;4.80;99.90;;;;;;5020982;28;20196;-51
2024/01/13 07:10:10;;;;;;;4.25;1.85;;;4.70;99.90;;;;;;5017421;28;20271;-42
2024/01/13 07:12:36;;;;;;;3.90;1.70;;;4.70;99.90;;;;;;5021145;28;20309;-43
2024/01/13 07:15:03;;;;;;;3.45;1.83;;;4.80;99.90;;;;;;5020416;28;20191;-49
2024/01/13 07:17:29;;;;;;;3.70;1.98;;;4.80;99.90;;;;;;5019997;28;20254;-42
2024/01/13 07:19:55;;;;;;;2.78;2.00;;;4.80;99.90;;;;;;5020502;28;20192;-44
2024/01/13 07:22:21;;;;;;;3.50;2.08;;;4.70;99.90;;;;;;5020181;28;20218;-47
2024/01/13 07:24:48;;;;;;;2.63;2.35;;;4.80;99.90;;;;;;5020569;28;20264;-46
2024/01/13 07:27:14;;;;;;;5.20;2.85;;;4.80;99.90;;;;;;5020963;28;20180;-42
2024/01/13 07:29:40;;;;;;;2.95;2.45;;;4.80;99.90;;;;;;5020489;28;20191;-45
2024/01/13 07:32:06;;;;;;;5.75;2.85;;;4.90;99.90;;;;;;5015655;28;20183;-52
2024/01/13 07:34:32;;;;;;;7.15;3.58;;;4.80;99.90;;;;;;5020417;28;20184;-42
2024/01/13 07:36:58;;;;;;;6.68;3.30;;;4.80;99.90;;;;;;5019777;28;20279;-43
2024/01/13 07:39:24;;;;;;;6.93;4.28;;;4.80;99.90;;;;;;5015521;28;20229;-41
2024/01/13 07:41:50;;;;;;;12.48;4.88;;;4.90;99.90;;;;;;5020333;28;20195;-46
2024/01/13 07:44:16;;;;;;;15.45;6.68;;;4.90;99.90;;;;;;5020601;28;20196;-44
2024/01/13 07:46:42;;;;;;;13.35;7.00;;;4.90;99.90;;;;;;5015511;28;20188;-46
2024/01/13 07:49:08;;;;;;;13.63;8.32;;;4.90;99.90;;;;;;5015779;28;20281;-47
2024/01/13 07:51:35;;;;;;;20.10;9.15;;;5.00;99.90;;;;;;5022028;28;20184;-45
2024/01/13 07:54:01;;;;;;;18.85;10.05;;;5.00;99.90;;;;;;5023592;28;20274;-44
2024/01/13 07:56:28;;;;;;;15.70;9.82;;;5.00;99.90;;;;;;5019507;28;20301;-45
2024/01/13 07:58:53;;;;;;;20.83;10.65;;;5.00;99.90;;;;;;5020394;28;20687;-43
2024/01/13 08:01:19;;;;;;;24.08;13.05;;;5.00;99.90;;;;;;5019805;28;20196;-48
2024/01/13 08:03:45;;;;;;;30.90;13.25;;;5.00;99.90;;;;;;5023203;28;20210;-44
2024/01/13 08:06:11;;;;;;;32.22;16.95;;;5.00;99.90;;;;;;5020553;28;20435;-42
2024/01/13 08:08:37;;;;;;;29.45;17.05;;;5.00;99.90;;;;;;5023997;28;20527;-46
2024/01/13 08:11:03;;;;;;;32.45;17.88;;;5.00;99.90;;;;;;5023507;28;20188;-43
2024/01/13 08:13:29;;;;;;;33.30;18.52;;;5.00;99.90;;;;;;5018357;28;20252;-43
2024/01/13 08:15:55;;;;;;;33.35;18.70;;;5.00;99.90;;;;;;5017733;28;20188;-47
2024/01/13 08:18:24;;;;;;;29.67;18.27;;;5.00;99.90;;;;;;5023481;28;20286;-45
2024/01/13 08:20:51;;;;;;;35.50;18.75;;;5.00;99.90;;;;;;5023354;28;20850;-45
2024/01/13 08:23:18;;;;;;;39.17;20.42;;;5.00;99.90;;;;;;5017118;28;20208;-46
2024/01/13 08:25:44;;;;;;;34.95;20.45;;;5.00;99.90;;;;;;5017339;28;20192;-43
2024/01/13 08:28:11;;;;;;;37.78;19.27;;;5.00;99.90;;;;;;5023057;28;20195;-48
2024/01/13 08:30:37;;;;;;;37.25;20.33;;;5.10;99.90;;;;;;5023818;28;20192;-44
2024/01/13 08:33:04;;;;;;;37.45;20.65;;;5.10;99.90;;;;;;5022688;28;20196;-45
2024/01/13 08:35:30;;;;;;;36.38;21.48;;;5.10;99.90;;;;;;5023334;28;20214;-45
2024/01/13 08:37:56;;;;;;;43.03;23.38;;;5.10;99.90;;;;;;5022921;28;20648;-46
2024/01/13 08:40:22;;;;;;;51.45;26.70;;;5.10;99.90;;;;;;5022834;28;20596;-44
2024/01/13 08:42:49;;;;;;;51.13;27.98;;;5.10;99.90;;;;;;5022678;28;20616;-49
2024/01/13 08:45:15;;;;;;;59.13;30.58;;;5.10;99.90;;;;;;5022211;28;20194;-44
2024/01/13 08:47:41;;;;;;;62.03;34.15;;;5.10;99.90;;;;;;5023006;28;21384;-44
2024/01/13 08:50:07;;;;;;;63.83;34.78;;;5.10;99.90;;;;;;5018707;28;20184;-46
2024/01/13 08:52:33;;;;;;;74.63;37.00;;;5.10;99.90;;;;;;5022545;28;20196;-47
2024/01/13 08:54:59;;;;;;;71.90;38.70;;;5.20;99.90;;;;;;5017710;28;20277;-40
2024/01/13 08:57:25;;;;;;;66.18;37.53;;;5.20;99.90;;;;;;5021072;28;20187;-42
2024/01/13 08:59:51;;;;;;;72.50;37.13;;;5.20;99.90;;;;;;4998911;28;20210;-45
2024/01/13 09:02:17;;;;;;;72.72;36.67;;;5.20;99.90;;;;;;4987856;28;20660;-53
2024/01/13 09:04:43;;;;;;;71.05;37.13;;;5.20;99.90;;;;;;5022113;28;20234;-42
2024/01/13 09:07:09;;;;;;;67.43;36.08;;;5.30;99.90;;;;;;5022599;28;20180;-43
2024/01/13 09:09:34;;;;;;;59.85;35.10;;;5.30;99.90;;;;;;5018748;28;20242;-41
2024/01/13 09:12:01;;;;;;;59.50;33.38;;;5.30;99.90;;;;;;5018358;28;20283;-45
2024/01/13 09:14:27;;;;;;;69.43;34.75;;;5.20;99.90;;;;;;5022369;28;20184;-46
2024/01/13 09:16:53;;;;;;;67.22;36.22;;;5.30;99.90;;;;;;5021326;28;20196;-47
2024/01/13 09:19:19;;;;;;;63.38;35.05;;;5.30;99.90;;;;;;5019328;28;20724;-46
2024/01/13 09:21:45;;;;;;;64.55;36.25;;;5.30;99.90;;;;;;5021621;28;20284;-43
2024/01/13 09:24:11;;;;;;;69.13;36.30;;;5.30;99.90;;;;;;5022138;28;20215;-45
2024/01/13 09:26:41;;;;;;;75.45;38.28;;;5.30;99.90;;;;;;5022161;28;20192;-47
2024/01/13 09:29:06;;;;;;;71.65;38.55;;;5.30;99.90;;;;;;5022143;28;20259;-46
2024/01/13 09:31:32;;;;;;;65.10;37.80;;;5.30;99.90;;;;;;5021390;28;20192;-42
2024/01/13 09:33:58;;;;;;;68.78;38.90;;;5.30;99.90;;;;;;5021703;28;20231;-45
2024/01/13 09:36:24;;;;;;;66.85;36.95;;;5.30;99.90;;;;;;5020931;28;20498;-49
2024/01/13 09:38:50;;;;;;;80.50;42.05;;;5.30;99.90;;;;;;4996123;28;20226;-42
2024/01/13 09:41:17;;;;;;;76.32;42.63;;;5.30;99.90;;;;;;5021404;28;20199;-45
2024/01/13 09:44:04;;;;;;;81.90;42.60;;;5.30;99.90;;;;;;5021355;28;20316;-50
2024/01/13 09:46:30;;;;;;;78.25;42.38;;;5.30;99.90;;;;;;5021613;28;20558;-48
2024/01/13 09:48:58;;;;;;;81.82;44.60;;;5.30;99.90;;;;;;5021712;28;20683;-45
2024/01/13 09:51:25;;;;;;;75.20;41.88;;;5.30;99.90;;;;;;5021084;28;20199;-45
2024/01/13 09:54:11;;;;;;;79.35;44.50;;;5.40;99.90;;;;;;5003537;28;20648;-43
2024/01/13 09:56:45;;;;;;;76.50;42.65;;;5.40;99.90;;;;;;5021049;28;20298;-47
2024/01/13 09:59:12;;;;;;;70.75;41.22;;;5.40;99.90;;;;;;5021564;28;20316;-42
2024/01/13 10:01:38;;;;;;;80.88;43.13;;;5.40;99.90;;;;;;5015426;28;20184;-44
2024/01/13 10:04:04;;;;;;;71.68;42.65;;;5.40;99.90;;;;;;5021403;28;20211;-43
2024/01/13 10:06:33;;;;;;;78.95;42.70;;;5.40;99.90;;;;;;5021499;28;20207;-51
2024/01/13 10:08:59;;;;;;;71.35;41.55;;;5.40;99.90;;;;;;5001372;28;20199;-47
2024/01/13 10:11:25;;;;;;;76.72;40.60;;;5.50;99.90;;;;;;5021240;28;20717;-45
2024/01/13 10:14:01;;;;;;;78.75;44.35;;;5.50;99.90;;;;;;5017472;28;20191;-48
2024/01/13 10:16:29;;;;;;;75.45;41.95;;;5.50;99.90;;;;;;5021708;28;20223;-43
2024/01/13 10:19:13;;;;;;;70.47;41.10;;;5.50;99.90;;;;;;5021469;28;20633;-42
2024/01/13 10:21:39;;;;;;;66.82;41.08;;;5.50;99.90;;;;;;5020850;28;20278;-49
2024/01/13 10:24:05;;;;;;;66.10;39.67;;;5.50;99.90;;;;;;5014297;28;20215;-49
2024/01/13 10:26:35;;;;;;;73.75;40.22;;;5.60;99.90;;;;;;5020653;28;20184;-52
2024/01/13 10:29:01;;;;;;;71.72;40.50;;;5.60;99.90;;;;;;5019430;28;20210;-46
2024/01/13 10:31:27;;;;;;;64.05;37.35;;;5.70;99.90;;;;;;5016828;28;20180;-41
2024/01/13 10:33:53;;;;;;;61.63;37.42;;;5.70;99.90;;;;;;5019432;28;20226;-47
2024/01/13 10:36:22;;;;;;;58.55;34.58;;;5.80;99.90;;;;;;5018910;28;20577;-46
2024/01/13 10:38:49;;;;;;;62.22;34.22;;;5.80;99.90;;;;;;5013670;28;20190;-49
2024/01/13 10:41:15;;;;;;;62.72;35.80;;;5.80;99.90;;;;;;5019326;28;20264;-42
2024/01/13 10:43:43;;;;;;;66.78;35.97;;;5.80;99.90;;;;;;5018847;28;20216;-42
2024/01/13 10:46:17;;;;;;;61.65;35.17;;;5.90;99.90;;;;;;5019867;28;20212;-39
2024/01/13 10:48:50;;;;;;;54.00;30.80;;;5.90;99.90;;;;;;5014263;28;20261;-49
2024/01/13 10:51:43;;;;;;;57.75;32.97;;;5.90;99.90;;;;;;5016674;28;20223;-48
2024/01/13 10:54:10;;;;;;;52.53;28.38;;;5.90;99.90;;;;;;5015825;28;20293;-49
2024/01/13 10:56:38;;;;;;;47.05;26.85;;;5.90;99.90;;;;;;5012362;28;20280;-42
2024/01/13 10:59:04;;;;;;;47.58;25.40;;;5.90;99.90;;;;;;5019891;28;20191;-43
2024/01/13 11:01:34;;;;;;;49.67;25.85;;;5.90;99.90;;;;;;5020677;28;20211;-42
2024/01/13 11:04:04;;;;;;;39.90;21.90;;;5.90;99.90;;;;;;5020164;28;20239;-53
2024/01/13 11:06:30;;;;;;;43.08;22.83;;;5.90;99.90;;;;;;5020356;28;20184;-44
2024/01/13 11:08:57;;;;;;;45.08;21.40;;;5.90;99.90;;;;;;5020461;28;20604;-46
2024/01/13 11:11:37;;;;;;;38.38;19.30;;;6.00;99.90;;;;;;5019895;28;20284;-47
2024/01/13 11:14:07;;;;;;;34.35;18.30;;;6.00;99.90;;;;;;5019983;28;20191;-42
2024/01/13 11:16:36;;;;;;;35.40;18.88;;;6.00;99.90;;;;;;5020212;28;20592;-42
2024/01/13 11:19:02;;;;;;;30.65;16.95;;;6.00;99.90;;;;;;5020290;28;20218;-44
2024/01/13 11:21:30;;;;;;;32.42;17.00;;;6.10;99.90;;;;;;5020441;28;20184;-44
2024/01/13 11:23:58;;;;;;;32.42;16.52;;;6.10;99.90;;;;;;5016902;28;20239;-46
2024/01/13 11:26:54;;;;;;;34.22;17.00;;;6.10;99.90;;;;;;5021671;28;20184;-47
2024/01/13 11:29:25;;;;;;;29.58;15.48;;;6.10;99.90;;;;;;5015423;28;20204;-43
2024/01/13 11:32:01;;;;;;;25.25;13.70;;;6.10;99.90;;;;;;5018975;28;20219;-43
2024/01/13 11:34:27;;;;;;;30.52;16.05;;;6.10;99.90;;;;;;5023958;28;20192;-46
2024/01/13 11:36:56;;;;;;;31.65;16.88;;;6.10;99.90;;;;;;5024259;28;20595;-49
2024/01/13 11:39:23;;;;;;;31.77;15.23;;;6.10;99.90;;;;;;5019224;28;20663;-44
2024/01/13 11:41:54;;;;;;;27.80;14.38;;;6.10;99.90;;;;;;5016853;28;20762;-43
2024/01/13 11:44:26;;;;;;;28.58;14.95;;;6.20;99.90;;;;;;5023437;28;20283;-45
2024/01/13 11:47:18;;;;;;;24.00;13.70;;;6.20;99.90;;;;;;5007589;28;20188;-44
2024/01/13 11:49:45;;;;;;;27.25;13.70;;;6.20;99.90;;;;;;5023463;28;20204;-45
2024/01/13 11:52:15;;;;;;;26.38;14.23;;;6.20;99.90;;;;;;5024237;28;20189;-46
2024/01/13 11:54:43;;;;;;;25.45;13.23;;;6.20;99.90;;;;;;5024219;28;20234;-50
2024/01/13 11:57:12;;;;;;;25.38;13.25;;;6.20;99.90;;;;;;5024116;28;20226;-46
2024/01/13 11:59:38;;;;;;;25.52;12.93;;;6.30;99.90;;;;;;5023626;28;20211;-47
2024/01/13 12:02:04;;;;;;;27.42;13.15;;;6.30;99.90;;;;;;5020746;28;20193;-47
2024/01/13 12:04:33;;;;;;;19.50;11.50;;;6.30;99.90;;;;;;4992008;28;20265;-46
2024/01/13 12:06:59;;;;;;;23.88;12.38;;;6.30;99.90;;;;;;5017229;28;20245;-42
2024/01/13 12:09:27;;;;;;;21.13;11.18;;;6.30;99.90;;;;;;5023942;28;20195;-48
2024/01/13 12:11:57;;;;;;;20.63;11.07;;;6.30;99.90;;;;;;5022877;28;20188;-42
2024/01/13 12:14:28;;;;;;;21.30;10.32;;;6.30;99.90;;;;;;5022489;28;20202;-46
2024/01/13 12:16:55;;;;;;;15.18;10.25;;;6.30;99.90;;;;;;5016518;28;20199;-44
2024/01/13 12:19:25;;;;;;;18.30;9.80;;;6.30;99.90;;;;;;5018700;28;20188;-43
2024/01/13 12:21:51;;;;;;;20.85;10.25;;;6.30;99.90;;;;;;5022600;28;20184;-43
2024/01/13 12:24:24;;;;;;;17.25;9.63;;;6.30;99.90;;;;;;5023051;28;20222;-52
2024/01/13 12:26:51;;;;;;;18.33;9.38;;;6.30;99.90;;;;;;5022407;28;20283;-47
2024/01/13 12:29:17;;;;;;;14.02;7.65;;;6.30;99.90;;;;;;5002285;28;21202;-48
2024/01/13 12:31:43;;;;;;;16.92;8.85;;;6.30;99.90;;;;;;5022585;28;20184;-46
2024/01/13 12:34:13;;;;;;;18.55;8.50;;;6.30;99.90;;;;;;5022810;28;20206;-42
2024/01/13 12:36:40;;;;;;;14.82;8.20;;;6.30;99.90;;;;;;5022575;28;20204;-46
2024/01/13 12:39:10;;;;;;;13.00;8.27;;;6.30;99.90;;;;;;5022550;28;20184;-47
2024/01/13 12:41:36;;;;;;;16.92;7.43;;;6.40;99.90;;;;;;5017442;28;20188;-46
2024/01/13 12:44:06;;;;;;;15.38;7.40;;;6.40;99.90;;;;;;5020646;28;20211;-46
2024/01/13 12:46:36;;;;;;;11.82;7.28;;;6.40;99.90;;;;;;5021960;28;20558;-45